Aviation Digital Data Service (ADDS)

Output produced by METARs form (1531 UTC 27 September 2016)
found at http://aviationweather.gov/adds/metars/
 
KFAY 271139Z 2712/2812 23003KT P6SM OVC100 
     TEMPO 2718/2722 6SM SHRA BKN050 
     FM272300 18003KT P6SM OVC250 
     FM280800 19003KT P6SM BKN100 
     FM281000 17003KT P6SM OVC007